Thomson Spirit — 9HA2336 — position and weather

sailwx.info

Track history (hours):
 
Tides and Currents Weather Stations Pressure Air Temp Water Temp Dewpoint Dewpoint Depression Visibility Wind Speed Wind Dir Waves Ship Positions

Thomson Spirit

Last reported at 2016-Dec-02 17:33 UTC. Time now 2016-Dec-02 18:06 UTC.
Position N 36°32' E 014°09'.

Length 214 m; draft 8 m.

Type: Passenger vessel. MMSI: 248368000.

Date/timePositionNaut miles runAvg speedWind from/ knotsBaromVisibWave heightAir tempDewpointWater temp
2016-Dec-02 17:33N 36°32' E 014°09'  
2016-Nov-30 02:34N 35°59' W 005°20'  
2016-Nov-27 00:22N 28°27' W 015°01'1215.0
2016-Nov-26 23:33N 28°18' W 015°11'1514.6
2016-Nov-26 22:34N 28°08' W 015°23'2 2.1
2016-Nov-26 21:33N 28°08' W 015°25'0 0.0
2016-Nov-26 20:34N 28°08' W 015°25'0 0.0
2016-Nov-26 19:34N 28°08' W 015°25'0 0.0
2016-Nov-26 18:34N 28°08' W 015°25'0 0.0
2016-Nov-26 17:34N 28°08' W 015°25'0 0.0
2016-Nov-26 16:34N 28°08' W 015°25'0 0.0
2016-Nov-26 15:34N 28°08' W 015°25'0 0.0
2016-Nov-26 14:34N 28°08' W 015°25'0 0.0
2016-Nov-26 13:33N 28°08' W 015°25'0 0.0
2016-Nov-26 12:33N 28°08' W 015°25'0 0.0
2016-Nov-26 11:34N 28°08' W 015°25'0 0.0
2016-Nov-26 10:33N 28°08' W 015°25'0 0.0
2016-Nov-26 09:33N 28°08' W 015°25'0 0.0
2016-Nov-26 08:34N 28°08' W 015°25'0 0.0
2016-Nov-26 07:34N 28°08' W 015°25'3 3.3
2016-Nov-26 06:34N 28°08' W 015°22'1212.2
2016-Nov-26 05:34N 28°20' W 015°19'1010.2
2016-Nov-26 04:33N 28°29' W 015°25'1111.3
2016-Nov-26 03:34N 28°34' W 015°36'8 8.2
2016-Nov-26 02:34N 28°30' W 015°45'8 8.5
2016-Nov-26 01:33N 28°24' W 015°51'9 8.6
2016-Nov-26 00:33N 28°25' W 016°01'8 7.8
2016-Nov-25 23:32N 28°28' W 016°10'10 0.5
2016-Nov-25 04:13N 28°25' W 015°58'913.5
2016-Nov-25 03:33N 28°32' W 015°51'1413.7
2016-Nov-25 02:33N 28°40' W 015°39'1414.1
2016-Nov-25 01:33N 28°42' W 015°23'1413.7
2016-Nov-25 00:34N 28°44' W 015°07'5513.8
2016-Nov-24 20:33N 28°48' W 014°04'1513.6
2016-Nov-24 19:28N 28°48' W 013°48'1314.1
2016-Nov-24 18:34N 28°54' W 013°35'5 4.7
2016-Nov-24 17:34N 28°58' W 013°32'0 0.0
2016-Nov-24 16:33N 28°58' W 013°32'0 0.0
2016-Nov-24 15:34N 28°58' W 013°32'0 0.0
2016-Nov-24 14:32N 28°58' W 013°32'0 0.0
2016-Nov-24 13:33N 28°58' W 013°32'0 0.0
2016-Nov-24 12:33N 28°58' W 013°32'0 0.0
2016-Nov-24 11:32N 28°58' W 013°32'0 0.0
2016-Nov-24 10:33N 28°58' W 013°32'0 0.2
2016-Nov-24 09:26N 28°58' W 013°32'7 7.6
2016-Nov-24 08:34N 28°60' W 013°24'1514.5
2016-Nov-24 07:33N 29°05' W 013°09'  
Track history (hours):
 
Tides and Currents Weather Stations Pressure Air Temp Water Temp Dewpoint Dewpoint Depression Visibility Wind Speed Wind Dir Waves Ship Positions

Thomson Spirit

Last reported at 2016-Dec-02 17:33 UTC. Time now 2016-Dec-02 18:06 UTC.
Position N 36°32' E 014°09'.

Length 214 m; draft 8 m.

Type: Passenger vessel. MMSI: 248368000.

Date/timePositionNaut miles runAvg speedWind from/ knotsBaromVisibWave heightAir tempDewpointWater temp
2016-Dec-02 17:33N 36°32' E 014°09'  
2016-Nov-30 02:34N 35°59' W 005°20'  
2016-Nov-27 00:22N 28°27' W 015°01'1215.0
2016-Nov-26 23:33N 28°18' W 015°11'1514.6
2016-Nov-26 22:34N 28°08' W 015°23'2 2.1
2016-Nov-26 21:33N 28°08' W 015°25'0 0.0
2016-Nov-26 20:34N 28°08' W 015°25'0 0.0
2016-Nov-26 19:34N 28°08' W 015°25'0 0.0
2016-Nov-26 18:34N 28°08' W 015°25'0 0.0
2016-Nov-26 17:34N 28°08' W 015°25'0 0.0
2016-Nov-26 16:34N 28°08' W 015°25'0 0.0
2016-Nov-26 15:34N 28°08' W 015°25'0 0.0
2016-Nov-26 14:34N 28°08' W 015°25'0 0.0
2016-Nov-26 13:33N 28°08' W 015°25'0 0.0
2016-Nov-26 12:33N 28°08' W 015°25'0 0.0
2016-Nov-26 11:34N 28°08' W 015°25'0 0.0
2016-Nov-26 10:33N 28°08' W 015°25'0 0.0
2016-Nov-26 09:33N 28°08' W 015°25'0 0.0
2016-Nov-26 08:34N 28°08' W 015°25'0 0.0
2016-Nov-26 07:34N 28°08' W 015°25'3 3.3
2016-Nov-26 06:34N 28°08' W 015°22'1212.2
2016-Nov-26 05:34N 28°20' W 015°19'1010.2
2016-Nov-26 04:33N 28°29' W 015°25'1111.3
2016-Nov-26 03:34N 28°34' W 015°36'8 8.2
2016-Nov-26 02:34N 28°30' W 015°45'8 8.5
2016-Nov-26 01:33N 28°24' W 015°51'9 8.6
2016-Nov-26 00:33N 28°25' W 016°01'8 7.8
2016-Nov-25 23:32N 28°28' W 016°10'10 0.5
2016-Nov-25 04:13N 28°25' W 015°58'913.5
2016-Nov-25 03:33N 28°32' W 015°51'1413.7
2016-Nov-25 02:33N 28°40' W 015°39'1414.1
2016-Nov-25 01:33N 28°42' W 015°23'1413.7
2016-Nov-25 00:34N 28°44' W 015°07'5513.8
2016-Nov-24 20:33N 28°48' W 014°04'1513.6
2016-Nov-24 19:28N 28°48' W 013°48'1314.1
2016-Nov-24 18:34N 28°54' W 013°35'5 4.7
2016-Nov-24 17:34N 28°58' W 013°32'0 0.0
2016-Nov-24 16:33N 28°58' W 013°32'0 0.0
2016-Nov-24 15:34N 28°58' W 013°32'0 0.0
2016-Nov-24 14:32N 28°58' W 013°32'0 0.0
2016-Nov-24 13:33N 28°58' W 013°32'0 0.0
2016-Nov-24 12:33N 28°58' W 013°32'0 0.0
2016-Nov-24 11:32N 28°58' W 013°32'0 0.0
2016-Nov-24 10:33N 28°58' W 013°32'0 0.2
2016-Nov-24 09:26N 28°58' W 013°32'7 7.6
2016-Nov-24 08:34N 28°60' W 013°24'1514.5
2016-Nov-24 07:33N 29°05' W 013°09'  

Dump ship's entire track history